createdAt,value
2023-02-04T00:00:37.495Z,21.33
2023-02-04T00:03:25.081Z,19.03
2023-02-04T00:05:52.275Z,19.13
2023-02-04T00:08:19.682Z,23.00
2023-02-04T00:10:47.553Z,20.80
2023-02-04T00:13:15.150Z,21.60
2023-02-04T00:15:42.179Z,21.03
2023-02-04T00:18:09.802Z,19.10
2023-02-04T00:20:36.887Z,19.73
2023-02-04T00:23:04.138Z,22.00
2023-02-04T00:25:31.149Z,23.07
2023-02-04T00:27:58.470Z,20.53
2023-02-04T00:30:25.600Z,20.13
2023-02-04T00:32:55.117Z,19.13
2023-02-04T00:35:23.356Z,19.63
2023-02-04T00:37:53.369Z,21.37
2023-02-04T00:40:20.551Z,18.03
2023-02-04T00:42:47.803Z,16.83
2023-02-04T00:45:14.878Z,17.13
2023-02-04T00:47:42.175Z,18.00
2023-02-04T00:50:09.328Z,21.03
2023-02-04T00:52:37.620Z,19.23
2023-02-04T00:55:05.237Z,15.27
2023-02-04T00:57:32.495Z,18.63
2023-02-04T00:59:59.574Z,19.73
2023-02-04T01:02:26.940Z,18.10
2023-02-04T01:04:54.071Z,16.03
2023-02-04T01:07:21.462Z,15.80
2023-02-04T01:09:48.491Z,18.47
2023-02-04T01:12:15.803Z,14.53
2023-02-04T01:14:43.048Z,16.93
2023-02-04T01:17:10.666Z,15.47
2023-02-04T01:19:37.620Z,16.07
2023-02-04T01:22:04.981Z,18.43
2023-02-04T01:24:31.959Z,15.80
2023-02-04T01:27:17.609Z,20.40
2023-02-04T01:29:44.769Z,20.37
2023-02-04T01:32:12.146Z,17.63
2023-02-04T01:34:39.140Z,21.53
2023-02-04T01:37:06.907Z,24.47
2023-02-04T01:39:34.185Z,17.77
2023-02-04T01:42:01.603Z,19.50
2023-02-04T01:44:29.238Z,25.33
2023-02-04T01:46:57.019Z,33.67
2023-02-04T01:49:24.388Z,25.03
2023-02-04T01:51:51.697Z,22.60
2023-02-04T01:54:18.769Z,24.10
2023-02-04T01:56:47.334Z,19.27
2023-02-04T01:59:16.472Z,24.10
2023-02-04T02:01:52.321Z,23.40
2023-02-04T02:04:32.838Z,25.43
2023-02-04T02:07:04.439Z,18.80
2023-02-04T02:09:32.245Z,19.43
2023-02-04T02:12:01.860Z,23.53
2023-02-04T02:14:28.884Z,18.60
2023-02-04T02:16:57.658Z,22.30
2023-02-04T02:19:29.467Z,21.73
2023-02-04T02:22:03.809Z,24.47
2023-02-04T02:24:32.884Z,26.13
2023-02-04T02:27:02.977Z,22.93
2023-02-04T02:29:29.971Z,21.43
2023-02-04T02:31:58.496Z,26.13
2023-02-04T02:34:27.884Z,26.97
2023-02-04T02:36:56.607Z,21.60
2023-02-04T02:39:24.478Z,26.27
2023-02-04T02:41:52.151Z,28.07
2023-02-04T02:44:19.380Z,26.83
2023-02-04T02:46:46.866Z,21.40
2023-02-04T02:49:18.748Z,24.43
2023-02-04T02:51:48.455Z,25.47
2023-02-04T02:54:34.238Z,21.87
2023-02-04T02:57:11.436Z,21.27
2023-02-04T02:59:38.468Z,17.50
2023-02-04T03:02:06.597Z,20.57
2023-02-04T03:04:37.737Z,18.13
2023-02-04T03:07:06.131Z,18.27
2023-02-04T03:09:35.025Z,17.50
2023-02-04T03:12:02.649Z,20.20
2023-02-04T03:14:29.831Z,18.80
2023-02-04T03:16:57.975Z,14.63
2023-02-04T03:19:26.109Z,13.53
2023-02-04T03:21:54.812Z,19.40
2023-02-04T03:24:22.978Z,20.20
2023-02-04T03:26:50.712Z,17.70
2023-02-04T03:29:17.739Z,17.83
2023-02-04T03:31:45.383Z,14.33
2023-02-04T03:34:12.845Z,10.97
2023-02-04T03:36:40.068Z,10.40
2023-02-04T03:39:07.113Z,9.50
2023-02-04T03:41:34.407Z,13.60
2023-02-04T03:44:01.521Z,14.90
2023-02-04T03:46:29.075Z,9.80
2023-02-04T03:48:56.144Z,10.13
2023-02-04T03:51:23.488Z,11.13
2023-02-04T03:53:50.506Z,8.70
2023-02-04T03:56:17.882Z,9.80
2023-02-04T03:58:44.904Z,8.50
2023-02-04T04:01:12.180Z,9.20
2023-02-04T04:03:39.171Z,8.70
2023-02-04T04:06:08.773Z,9.40
2023-02-04T04:08:36.568Z,6.50
2023-02-04T04:11:04.033Z,8.03
2023-02-04T04:13:30.959Z,6.87
2023-02-04T04:15:58.464Z,6.10
2023-02-04T04:18:25.457Z,5.93
2023-02-04T04:20:52.766Z,6.47
2023-02-04T04:23:19.819Z,4.63
2023-02-04T04:25:47.125Z,3.47
2023-02-04T04:28:14.363Z,4.07
2023-02-04T04:30:42.090Z,3.30
2023-02-04T04:33:09.074Z,7.40
2023-02-04T04:35:36.413Z,5.47
2023-02-04T04:38:03.909Z,3.83
2023-02-04T04:40:31.656Z,4.83
2023-02-04T04:42:58.862Z,3.33
2023-02-04T04:45:26.248Z,4.60
2023-02-04T04:47:53.290Z,5.00
2023-02-04T04:50:20.555Z,4.30
2023-02-04T04:52:47.621Z,2.70
2023-02-04T04:55:15.121Z,3.07
2023-02-04T04:57:42.225Z,5.40
2023-02-04T05:00:14.915Z,3.47
2023-02-04T05:02:42.119Z,2.63
2023-02-04T05:05:10.402Z,3.60
2023-02-04T05:07:37.446Z,4.33
2023-02-04T05:10:05.526Z,2.77
2023-02-04T05:12:32.643Z,3.03
2023-02-04T05:15:00.112Z,4.70
2023-02-04T05:17:28.633Z,2.33
2023-02-04T05:19:56.084Z,1.70
2023-02-04T05:22:23.123Z,2.13
2023-02-04T05:24:50.369Z,1.97
2023-02-04T05:27:17.404Z,3.70
2023-02-04T05:29:44.681Z,3.60
2023-02-04T05:32:11.660Z,2.23
2023-02-04T05:34:39.988Z,3.77
2023-02-04T05:37:07.167Z,3.37
2023-02-04T05:39:34.440Z,1.90
2023-02-04T05:42:01.478Z,2.20
2023-02-04T05:44:28.920Z,4.77
2023-02-04T05:46:55.997Z,4.03
2023-02-04T05:49:24.821Z,2.17
2023-02-04T05:51:51.803Z,2.77
2023-02-04T05:54:20.627Z,2.77
2023-02-04T05:56:47.940Z,3.93
2023-02-04T05:59:15.243Z,3.43
2023-02-04T06:01:42.328Z,1.93
2023-02-04T06:04:09.876Z,3.23
2023-02-04T06:06:36.959Z,4.90
2023-02-04T06:09:04.476Z,5.30
2023-02-04T06:11:31.440Z,4.67
2023-02-04T06:13:58.761Z,9.93
2023-02-04T06:16:25.916Z,11.43
2023-02-04T06:18:53.314Z,6.97
2023-02-04T06:21:20.262Z,5.07
2023-02-04T06:23:47.847Z,4.93
2023-02-04T06:26:14.973Z,4.00
2023-02-04T06:28:42.339Z,3.07
2023-02-04T06:31:09.505Z,5.33
2023-02-04T06:33:37.374Z,7.60
2023-02-04T06:36:05.251Z,5.53
2023-02-04T06:38:32.544Z,5.47
2023-02-04T06:40:59.561Z,3.77
2023-02-04T06:43:28.071Z,3.97
2023-02-04T06:45:55.433Z,3.43
2023-02-04T06:48:22.809Z,3.00
2023-02-04T06:50:49.899Z,4.93
2023-02-04T06:53:17.397Z,2.93
2023-02-04T06:55:44.450Z,3.97
2023-02-04T06:58:11.787Z,3.67
2023-02-04T07:00:38.772Z,4.90
2023-02-04T07:03:07.546Z,4.00
2023-02-04T07:05:34.863Z,3.70
2023-02-04T07:08:02.377Z,5.13
2023-02-04T07:10:30.509Z,3.50
2023-02-04T07:12:58.607Z,6.40
2023-02-04T07:15:26.058Z,4.97
2023-02-04T07:17:54.176Z,2.67
2023-02-04T07:20:21.714Z,4.50
2023-02-04T07:22:49.321Z,5.30
2023-02-04T07:25:18.049Z,5.33
2023-02-04T07:27:45.769Z,5.90
2023-02-04T07:30:13.404Z,4.27
2023-02-04T07:32:40.770Z,8.60
2023-02-04T07:35:08.169Z,5.97
2023-02-04T07:37:35.649Z,11.70
2023-02-04T07:40:02.622Z,4.63
2023-02-04T07:42:30.020Z,5.40
2023-02-04T07:45:05.900Z,6.20
2023-02-04T07:47:33.300Z,5.27
2023-02-04T07:50:00.235Z,4.67
2023-02-04T07:52:27.597Z,6.17
2023-02-04T07:54:54.528Z,6.70
2023-02-04T07:57:21.906Z,6.30
2023-02-04T07:59:48.903Z,5.90
2023-02-04T08:02:16.128Z,5.20
2023-02-04T08:04:43.239Z,5.07
2023-02-04T08:07:10.603Z,5.87
2023-02-04T08:09:37.790Z,4.33
2023-02-04T08:12:05.611Z,6.63
2023-02-04T08:14:32.613Z,7.20
2023-02-04T08:16:59.891Z,4.43
2023-02-04T08:19:26.892Z,4.60
2023-02-04T08:21:54.279Z,4.87
2023-02-04T08:24:21.338Z,3.77
2023-02-04T08:26:49.494Z,3.90
2023-02-04T08:29:17.514Z,5.53
2023-02-04T08:31:45.222Z,4.23
2023-02-04T08:34:12.368Z,9.30
2023-02-04T08:36:39.603Z,4.83
2023-02-04T08:39:06.550Z,6.17
2023-02-04T08:41:33.972Z,6.97
2023-02-04T08:44:00.953Z,5.60
2023-02-04T08:46:28.470Z,13.10
2023-02-04T08:48:55.601Z,7.97
2023-02-04T08:51:23.431Z,11.27
2023-02-04T08:53:50.507Z,7.87
2023-02-04T08:56:20.474Z,8.53
2023-02-04T08:58:50.331Z,9.07
2023-02-04T09:01:17.758Z,8.47
2023-02-04T09:03:44.965Z,10.43
2023-02-04T09:06:12.544Z,11.40
2023-02-04T09:08:39.472Z,9.47
2023-02-04T09:11:06.778Z,9.40
2023-02-04T09:13:33.861Z,10.00
2023-02-04T09:16:01.329Z,10.60
2023-02-04T09:18:28.280Z,7.00
2023-02-04T09:20:55.558Z,8.73
2023-02-04T09:23:24.002Z,5.50
2023-02-04T09:25:51.416Z,38.50
2023-02-04T09:28:18.516Z,7.43
2023-02-04T09:30:47.113Z,12.93
2023-02-04T09:33:15.339Z,4.33
2023-02-04T09:35:42.749Z,10.40
2023-02-04T09:38:09.883Z,3.50
2023-02-04T09:40:44.984Z,5.87
2023-02-04T09:43:21.661Z,6.00
2023-02-04T09:45:49.611Z,5.30
2023-02-04T09:48:17.311Z,2.83
2023-02-04T09:50:45.217Z,9.40
2023-02-04T09:53:15.815Z,3.40
2023-02-04T09:55:45.608Z,3.20
2023-02-04T09:58:17.962Z,2.40
2023-02-04T10:00:47.059Z,2.00
2023-02-04T10:03:19.190Z,6.37
2023-02-04T10:05:46.803Z,13.50
2023-02-04T10:08:25.371Z,2.00
2023-02-04T10:10:52.640Z,3.43
2023-02-04T10:13:42.548Z,2.47
2023-02-04T10:16:15.588Z,11.07
2023-02-04T10:18:43.062Z,3.57
2023-02-04T10:21:42.607Z,2.50
2023-02-04T10:24:20.775Z,3.20
2023-02-04T10:26:48.160Z,2.90
2023-02-04T10:29:20.723Z,4.07
2023-02-04T10:31:50.307Z,2.77
2023-02-04T10:34:23.970Z,3.30
2023-02-04T10:36:54.658Z,3.00
2023-02-04T10:39:26.859Z,5.10
2023-02-04T10:41:56.366Z,2.40
2023-02-04T10:44:25.988Z,2.00
2023-02-04T10:47:01.192Z,1.30
2023-02-04T10:49:28.539Z,2.03
2023-02-04T10:51:57.780Z,3.50
2023-02-04T10:54:31.092Z,6.73
2023-02-04T10:57:04.027Z,3.37
2023-02-04T10:59:31.032Z,9.30
2023-02-04T11:02:01.054Z,2.27
2023-02-04T11:04:28.877Z,2.40
2023-02-04T11:06:56.086Z,2.40
2023-02-04T11:09:23.228Z,1.50
2023-02-04T11:11:51.399Z,2.73
2023-02-04T11:14:29.861Z,2.07
2023-02-04T11:17:01.640Z,3.17
2023-02-04T11:19:34.306Z,2.60
2023-02-04T11:22:24.475Z,3.17
2023-02-04T11:24:51.929Z,1.33
2023-02-04T11:27:26.817Z,2.93
2023-02-04T11:30:05.656Z,4.00
2023-02-04T11:32:37.868Z,2.37
2023-02-04T11:35:07.971Z,2.27
2023-02-04T11:37:39.069Z,2.23
2023-02-04T11:40:30.543Z,3.30
2023-02-04T11:43:10.458Z,2.40
2023-02-04T11:45:38.257Z,1.63
2023-02-04T11:48:19.567Z,1.83
2023-02-04T11:51:00.830Z,3.57
2023-02-04T11:53:32.309Z,3.30
2023-02-04T11:56:00.126Z,1.83
2023-02-04T11:58:29.314Z,2.30
2023-02-04T12:00:56.385Z,2.00
2023-02-04T12:03:29.825Z,3.03
2023-02-04T12:05:58.568Z,9.77
2023-02-04T12:08:36.847Z,2.80
2023-02-04T12:11:06.403Z,5.00
2023-02-04T12:13:34.843Z,2.70
2023-02-04T12:16:05.035Z,1.80
2023-02-04T12:18:35.218Z,2.70
2023-02-04T12:21:04.475Z,2.13
2023-02-04T12:23:32.840Z,2.93
2023-02-04T12:26:00.013Z,3.03
2023-02-04T12:28:30.028Z,3.23
2023-02-04T12:30:57.466Z,3.43
2023-02-04T12:33:24.858Z,3.57
2023-02-04T12:35:51.891Z,2.77
2023-02-04T12:38:20.588Z,3.47
2023-02-04T12:40:47.742Z,3.83
2023-02-04T12:43:15.080Z,5.90
2023-02-04T12:45:46.475Z,4.30
2023-02-04T12:48:14.213Z,5.17
2023-02-04T12:50:41.696Z,9.30
2023-02-04T12:53:09.074Z,3.03
2023-02-04T12:55:36.513Z,3.10
2023-02-04T12:58:04.224Z,4.13
2023-02-04T13:00:31.335Z,50.80
2023-02-04T13:02:59.245Z,43.57
2023-02-04T13:05:26.748Z,5.57
2023-02-04T13:07:54.226Z,4.50
2023-02-04T13:10:22.003Z,5.67
2023-02-04T13:12:49.256Z,4.57
2023-02-04T13:15:16.357Z,4.67
2023-02-04T13:17:43.659Z,5.80
2023-02-04T13:20:11.331Z,6.80
2023-02-04T13:22:38.766Z,6.17
2023-02-04T13:25:06.586Z,5.17
2023-02-04T13:27:33.833Z,5.87
2023-02-04T13:30:00.816Z,3.93
2023-02-04T13:32:28.178Z,5.23
2023-02-04T13:34:55.210Z,5.47
2023-02-04T13:37:22.838Z,6.50
2023-02-04T13:39:49.900Z,5.43
2023-02-04T13:42:17.138Z,6.33
2023-02-04T13:44:44.285Z,8.00
2023-02-04T13:47:11.509Z,8.40
2023-02-04T13:49:38.497Z,8.50
2023-02-04T13:52:05.858Z,8.30
2023-02-04T13:54:32.998Z,8.03
2023-02-04T13:57:00.350Z,6.47
2023-02-04T13:59:27.376Z,6.00
2023-02-04T14:01:54.685Z,6.33
2023-02-04T14:04:21.852Z,6.43
2023-02-04T14:06:49.415Z,8.23
2023-02-04T14:09:16.921Z,5.70
2023-02-04T14:11:44.262Z,14.80
2023-02-04T14:14:11.268Z,10.47
2023-02-04T14:16:38.650Z,8.67
2023-02-04T14:19:06.467Z,7.47
2023-02-04T14:21:33.825Z,10.80
2023-02-04T14:24:01.638Z,12.53
2023-02-04T14:26:28.940Z,7.23
2023-02-04T14:28:55.900Z,10.17
2023-02-04T14:31:23.438Z,10.27
2023-02-04T14:33:50.573Z,9.70
2023-02-04T14:36:17.965Z,8.33
2023-02-04T14:38:44.962Z,11.63
2023-02-04T14:41:16.361Z,12.77
2023-02-04T14:43:43.506Z,11.93
2023-02-04T14:46:10.866Z,10.43
2023-02-04T14:48:37.937Z,7.90
2023-02-04T14:51:05.808Z,10.30
2023-02-04T14:53:32.857Z,15.53
2023-02-04T14:56:00.447Z,10.97
2023-02-04T14:58:28.048Z,10.43
2023-02-04T15:00:55.733Z,10.77
2023-02-04T15:03:23.066Z,13.30
2023-02-04T15:05:50.404Z,12.37
2023-02-04T15:08:17.380Z,10.33
2023-02-04T15:10:45.227Z,12.70
2023-02-04T15:13:12.431Z,11.10
2023-02-04T15:15:39.678Z,11.13
2023-02-04T15:18:06.788Z,13.10
2023-02-04T15:20:34.324Z,15.37
2023-02-04T15:23:01.711Z,10.80
2023-02-04T15:25:29.042Z,7.50
2023-02-04T15:27:56.070Z,11.63
2023-02-04T15:30:23.400Z,13.50
2023-02-04T15:32:50.479Z,12.70
2023-02-04T15:35:17.788Z,10.90
2023-02-04T15:37:44.894Z,12.83
2023-02-04T15:40:12.222Z,11.90
2023-02-04T15:42:39.355Z,13.90
2023-02-04T15:45:07.466Z,7.93
2023-02-04T15:47:34.523Z,7.70
2023-02-04T15:50:02.105Z,7.93
2023-02-04T15:52:29.482Z,4.83
2023-02-04T15:54:56.955Z,10.13
2023-02-04T15:57:24.002Z,7.37
2023-02-04T15:59:51.498Z,4.97
2023-02-04T16:02:18.777Z,8.33
2023-02-04T16:04:47.918Z,7.77
2023-02-04T16:07:14.977Z,5.50
2023-02-04T16:09:43.840Z,6.13
2023-02-04T16:12:10.890Z,4.33
2023-02-04T16:14:38.470Z,3.47
2023-02-04T16:17:08.253Z,5.50
2023-02-04T16:19:35.559Z,4.00
2023-02-04T16:22:02.559Z,4.40
2023-02-04T16:24:29.867Z,4.27
2023-02-04T16:26:56.780Z,6.13
2023-02-04T16:29:24.551Z,5.03
2023-02-04T16:31:53.071Z,3.90
2023-02-04T16:34:20.416Z,5.13
2023-02-04T16:36:47.567Z,4.70
2023-02-04T16:39:14.964Z,7.23
2023-02-04T16:41:43.052Z,4.53
2023-02-04T16:44:10.306Z,6.50
2023-02-04T16:46:37.356Z,6.33
2023-02-04T16:49:05.502Z,5.57
2023-02-04T16:51:32.484Z,5.77
2023-02-04T16:53:59.812Z,6.17
2023-02-04T16:56:33.955Z,5.43
2023-02-04T16:59:02.627Z,7.83
2023-02-04T17:01:29.753Z,7.47
2023-02-04T17:03:59.850Z,5.80
2023-02-04T17:06:32.243Z,6.57
2023-02-04T17:08:59.766Z,9.53
2023-02-04T17:11:29.735Z,6.40
2023-02-04T17:14:09.319Z,7.83
2023-02-04T17:16:37.201Z,6.67
2023-02-04T17:19:05.670Z,8.10
2023-02-04T17:21:32.695Z,7.47
2023-02-04T17:24:04.190Z,7.97
2023-02-04T17:26:37.177Z,12.37
2023-02-04T17:29:09.949Z,8.30
2023-02-04T17:31:37.622Z,7.07
2023-02-04T17:34:05.813Z,10.03
2023-02-04T17:36:33.566Z,9.43
2023-02-04T17:39:01.036Z,9.40
2023-02-04T17:41:28.220Z,8.37
2023-02-04T17:43:55.596Z,8.47
2023-02-04T17:46:22.788Z,11.80
2023-02-04T17:48:50.505Z,6.60
2023-02-04T17:51:18.143Z,10.87
2023-02-04T17:53:45.414Z,7.07
2023-02-04T17:56:14.304Z,7.07
2023-02-04T17:58:42.296Z,9.40
2023-02-04T18:01:19.202Z,6.93
2023-02-04T18:03:46.910Z,10.17
2023-02-04T18:06:16.839Z,5.70
2023-02-04T18:08:44.243Z,9.27
2023-02-04T18:11:27.027Z,9.10
2023-02-04T18:13:59.803Z,6.23
2023-02-04T18:16:30.580Z,16.97
2023-02-04T18:19:22.150Z,17.83
2023-02-04T18:21:52.915Z,8.60
2023-02-04T18:24:27.311Z,11.63
2023-02-04T18:26:55.520Z,67.73
2023-02-04T18:29:26.681Z,118.30
2023-02-04T18:31:57.133Z,77.67
2023-02-04T18:34:48.815Z,31.27
2023-02-04T18:37:32.155Z,64.07
2023-02-04T18:40:24.474Z,14.87
2023-02-04T18:42:58.621Z,20.50
2023-02-04T18:45:31.342Z,13.60
2023-02-04T18:48:21.123Z,13.73
2023-02-04T18:50:50.044Z,11.00
2023-02-04T18:53:23.812Z,7.73
2023-02-04T18:55:58.790Z,10.67
2023-02-04T18:58:29.465Z,9.10
2023-02-04T19:01:00.179Z,8.53
2023-02-04T19:03:29.836Z,6.50
2023-02-04T19:06:02.273Z,10.17
2023-02-04T19:08:41.816Z,7.97
2023-02-04T19:11:37.543Z,7.30
2023-02-04T19:14:22.646Z,9.80
2023-02-04T19:16:52.802Z,8.50
2023-02-04T19:19:45.680Z,8.73
2023-02-04T19:22:17.718Z,10.67
2023-02-04T19:24:45.230Z,12.47
2023-02-04T19:27:18.823Z,12.07
2023-02-04T19:29:45.856Z,14.07
2023-02-04T19:32:23.957Z,8.97
2023-02-04T19:34:52.791Z,10.00
2023-02-04T19:37:40.150Z,9.27
2023-02-04T19:40:25.360Z,8.67
2023-02-04T19:43:31.554Z,9.30
2023-02-04T19:45:59.226Z,11.33
2023-02-04T19:48:36.596Z,10.43
2023-02-04T19:51:29.624Z,9.33
2023-02-04T19:54:15.083Z,9.80
2023-02-04T19:56:42.008Z,10.30
2023-02-04T19:59:30.356Z,10.63
2023-02-04T20:02:19.830Z,9.33
2023-02-04T20:04:50.388Z,10.53
2023-02-04T20:07:26.153Z,13.03
2023-02-04T20:10:06.416Z,9.67
2023-02-04T20:12:33.872Z,12.27
2023-02-04T20:15:03.663Z,10.17
2023-02-04T20:17:41.358Z,8.87
2023-02-04T20:20:27.823Z,10.13
2023-02-04T20:23:32.424Z,8.93
2023-02-04T20:26:00.935Z,8.90
2023-02-04T20:28:42.086Z,7.93
2023-02-04T20:31:24.939Z,7.60
2023-02-04T20:33:54.810Z,7.93
2023-02-04T20:36:29.169Z,10.83
2023-02-04T20:39:12.702Z,8.53
2023-02-04T20:41:40.168Z,9.30
2023-02-04T20:44:17.114Z,12.93
2023-02-04T20:46:44.566Z,9.47
2023-02-04T20:49:26.082Z,10.60
2023-02-04T20:51:59.384Z,11.87
2023-02-04T20:54:28.098Z,8.97
2023-02-04T20:57:05.767Z,11.23
2023-02-04T20:59:36.726Z,7.37
2023-02-04T21:02:17.067Z,9.77
2023-02-04T21:04:51.906Z,7.83
2023-02-04T21:07:23.248Z,8.07
2023-02-04T21:09:51.726Z,9.30
2023-02-04T21:12:19.357Z,8.27
2023-02-04T21:14:46.354Z,8.13
2023-02-04T21:17:13.315Z,7.33
2023-02-04T21:19:40.569Z,9.40
2023-02-04T21:22:07.526Z,7.20
2023-02-04T21:24:34.809Z,7.50
2023-02-04T21:27:02.072Z,10.40
2023-02-04T21:29:29.437Z,7.03
2023-02-04T21:31:56.525Z,9.10
2023-02-04T21:34:23.818Z,7.37
2023-02-04T21:36:50.776Z,7.03
2023-02-04T21:39:18.031Z,9.47
2023-02-04T21:41:45.065Z,6.70
2023-02-04T21:44:12.341Z,7.20
2023-02-04T21:46:39.369Z,8.10
2023-02-04T21:49:06.752Z,8.00
2023-02-04T21:51:33.780Z,8.53
2023-02-04T21:54:04.507Z,7.97
2023-02-04T21:56:31.742Z,5.63
2023-02-04T21:58:59.088Z,5.80
2023-02-04T22:01:26.056Z,5.43
2023-02-04T22:03:53.464Z,6.03
2023-02-04T22:06:20.390Z,6.20
2023-02-04T22:08:47.705Z,5.53
2023-02-04T22:11:14.655Z,6.07
2023-02-04T22:14:00.264Z,6.63
2023-02-04T22:16:27.317Z,8.00
2023-02-04T22:18:54.545Z,6.43
2023-02-04T22:21:21.664Z,7.87
2023-02-04T22:23:49.144Z,6.50
2023-02-04T22:26:16.203Z,6.70
2023-02-04T22:28:43.434Z,6.23
2023-02-04T22:31:12.568Z,5.87
2023-02-04T22:33:39.908Z,6.60
2023-02-04T22:36:07.253Z,6.13
2023-02-04T22:38:34.513Z,6.90
2023-02-04T22:41:01.533Z,6.23
2023-02-04T22:43:28.822Z,5.80
2023-02-04T22:45:55.912Z,6.03
2023-02-04T22:48:23.273Z,6.13
2023-02-04T22:50:50.217Z,6.23
2023-02-04T22:53:17.543Z,5.80
2023-02-04T22:55:44.476Z,6.00
2023-02-04T22:58:11.764Z,4.80
2023-02-04T23:00:38.848Z,5.27
2023-02-04T23:03:06.202Z,5.87
2023-02-04T23:05:33.442Z,5.70
2023-02-04T23:08:01.118Z,6.73
2023-02-04T23:10:28.036Z,4.03
2023-02-04T23:12:55.582Z,5.83
2023-02-04T23:15:22.666Z,5.47
2023-02-04T23:17:52.428Z,6.57
2023-02-04T23:20:19.515Z,7.00
2023-02-04T23:22:47.124Z,6.03
2023-02-04T23:25:14.116Z,6.13
2023-02-04T23:27:41.480Z,8.77
2023-02-04T23:30:10.591Z,7.23
2023-02-04T23:32:37.912Z,6.23
2023-02-04T23:35:05.214Z,7.50
2023-02-04T23:37:32.857Z,6.17
2023-02-04T23:40:00.155Z,7.77
2023-02-04T23:42:30.193Z,5.63
2023-02-04T23:44:57.196Z,5.80
2023-02-04T23:47:24.854Z,6.53
2023-02-04T23:49:51.861Z,6.43
2023-02-04T23:52:19.184Z,9.30
2023-02-04T23:54:46.237Z,8.60
2023-02-04T23:57:13.469Z,6.53
2023-02-04T23:59:42.175Z,7.37
